createdAt,value
2023-03-29T00:00:39.542Z,0.50
2023-03-29T00:03:00.644Z,0.60
2023-03-29T00:05:15.866Z,1.00
2023-03-29T00:07:29.125Z,1.80
2023-03-29T00:09:43.631Z,0.40
2023-03-29T00:11:56.853Z,0.80
2023-03-29T00:14:10.523Z,3.60
2023-03-29T00:16:25.536Z,2.10
2023-03-29T00:18:39.110Z,1.50
2023-03-29T00:21:00.127Z,3.30
2023-03-29T00:23:13.172Z,0.70
2023-03-29T00:25:26.016Z,1.30
2023-03-29T00:27:38.762Z,2.40
2023-03-29T00:29:51.929Z,1.80
2023-03-29T00:32:04.920Z,2.90
2023-03-29T00:34:18.593Z,2.10
2023-03-29T00:36:32.792Z,0.60
2023-03-29T00:38:46.602Z,0.90
2023-03-29T00:41:01.989Z,0.90
2023-03-29T00:43:17.868Z,1.70
2023-03-29T00:45:33.195Z,2.10
2023-03-29T00:47:48.927Z,2.10
2023-03-29T00:50:07.717Z,3.30
2023-03-29T00:52:24.050Z,2.70
2023-03-29T00:54:39.343Z,2.10
2023-03-29T00:56:54.905Z,2.40
2023-03-29T00:59:13.466Z,3.10
2023-03-29T01:01:35.091Z,2.70
2023-03-29T01:03:55.243Z,1.30
2023-03-29T01:06:14.309Z,1.40
2023-03-29T01:08:32.160Z,1.60
2023-03-29T01:10:51.077Z,1.90
2023-03-29T01:13:10.595Z,1.10
2023-03-29T01:15:29.711Z,1.70
2023-03-29T01:17:44.472Z,1.00
2023-03-29T01:20:08.921Z,1.00
2023-03-29T01:22:33.390Z,1.60
2023-03-29T01:24:59.213Z,3.60
2023-03-29T01:27:19.268Z,1.30
2023-03-29T01:29:36.750Z,1.70
2023-03-29T01:31:54.368Z,1.00
2023-03-29T01:34:10.924Z,1.70
2023-03-29T01:36:30.039Z,3.00
2023-03-29T01:38:49.655Z,1.10
2023-03-29T01:41:04.582Z,3.00
2023-03-29T01:43:30.521Z,2.80
2023-03-29T01:45:49.675Z,2.00
2023-03-29T01:48:15.818Z,2.00
2023-03-29T01:50:37.983Z,2.90
2023-03-29T01:52:57.531Z,1.70
2023-03-29T01:55:15.449Z,2.70
2023-03-29T01:57:29.706Z,1.60
2023-03-29T01:59:48.720Z,2.80
2023-03-29T02:02:06.107Z,1.50
2023-03-29T02:04:22.104Z,1.20
2023-03-29T02:06:37.321Z,2.10
2023-03-29T02:08:51.603Z,2.40
2023-03-29T02:11:05.537Z,3.50
2023-03-29T02:13:20.180Z,2.60
2023-03-29T02:15:36.845Z,3.80
2023-03-29T02:17:52.415Z,1.50
2023-03-29T02:20:16.285Z,2.30
2023-03-29T02:22:36.342Z,2.30
2023-03-29T02:24:52.106Z,2.50
2023-03-29T02:27:06.516Z,1.70
2023-03-29T02:29:20.141Z,1.70
2023-03-29T02:31:38.429Z,1.40
2023-03-29T02:33:54.573Z,3.80
2023-03-29T02:36:11.368Z,2.10
2023-03-29T02:38:28.818Z,3.00
2023-03-29T02:40:43.286Z,1.00
2023-03-29T02:42:59.430Z,3.00
2023-03-29T02:45:16.638Z,3.30
2023-03-29T02:47:33.581Z,4.00
2023-03-29T02:49:47.191Z,1.90
2023-03-29T02:52:04.785Z,1.00
2023-03-29T02:54:21.354Z,1.30
2023-03-29T02:56:44.374Z,1.60
2023-03-29T02:58:57.367Z,0.90
2023-03-29T03:01:12.400Z,1.40
2023-03-29T03:03:26.632Z,3.80
2023-03-29T03:05:40.989Z,1.10
2023-03-29T03:07:53.916Z,2.30
2023-03-29T03:10:07.918Z,1.30
2023-03-29T03:12:24.215Z,1.40
2023-03-29T03:14:37.821Z,1.20
2023-03-29T03:16:52.326Z,1.80
2023-03-29T03:19:06.540Z,1.80
2023-03-29T03:21:21.265Z,4.30
2023-03-29T03:23:34.813Z,1.50
2023-03-29T03:25:50.264Z,1.50
2023-03-29T03:28:03.638Z,2.60
2023-03-29T03:30:22.024Z,2.10
2023-03-29T03:32:55.905Z,2.70
2023-03-29T03:35:33.050Z,1.80
2023-03-29T03:37:48.162Z,1.20
2023-03-29T03:40:05.878Z,1.30
2023-03-29T03:42:19.997Z,2.60
2023-03-29T03:44:36.398Z,1.20
2023-03-29T03:47:23.404Z,1.30
2023-03-29T03:49:37.807Z,1.40
2023-03-29T03:51:52.745Z,2.80
2023-03-29T03:54:06.677Z,1.30
2023-03-29T03:56:21.591Z,0.90
2023-03-29T03:58:50.139Z,2.10
2023-03-29T04:01:03.198Z,1.50
2023-03-29T04:03:22.800Z,0.80
2023-03-29T04:05:35.496Z,3.00
2023-03-29T04:07:48.578Z,1.60
2023-03-29T04:10:27.306Z,1.30
2023-03-29T04:12:51.905Z,1.10
2023-03-29T04:15:06.194Z,0.80
2023-03-29T04:17:21.198Z,0.80
2023-03-29T04:19:54.047Z,0.80
2023-03-29T04:22:06.682Z,0.90
2023-03-29T04:24:20.507Z,1.00
2023-03-29T04:26:48.979Z,1.10
2023-03-29T04:29:08.594Z,2.50
2023-03-29T04:31:33.939Z,0.70
2023-03-29T04:34:00.249Z,2.90
2023-03-29T04:36:14.955Z,3.00
2023-03-29T04:38:28.249Z,1.30
2023-03-29T04:40:41.739Z,1.10
2023-03-29T04:43:04.222Z,1.00
2023-03-29T04:45:19.256Z,1.80
2023-03-29T04:47:55.508Z,2.00
2023-03-29T04:50:09.656Z,1.70
2023-03-29T04:52:27.530Z,0.70
2023-03-29T04:54:41.382Z,2.30
2023-03-29T04:57:00.106Z,1.50
2023-03-29T04:59:40.775Z,2.10
2023-03-29T05:02:03.972Z,1.10
2023-03-29T05:04:19.776Z,0.80
2023-03-29T05:06:44.949Z,0.80
2023-03-29T05:08:58.211Z,2.10
2023-03-29T05:11:17.774Z,2.00
2023-03-29T05:13:30.486Z,1.60
2023-03-29T05:15:44.614Z,1.60
2023-03-29T05:17:58.265Z,1.90
2023-03-29T05:20:14.623Z,1.70
2023-03-29T05:22:31.311Z,1.50
2023-03-29T05:24:44.414Z,0.90
2023-03-29T05:27:02.688Z,3.00
2023-03-29T05:29:19.011Z,2.40
2023-03-29T05:31:38.386Z,2.50
2023-03-29T05:33:53.062Z,2.30
2023-03-29T05:36:12.185Z,1.30
2023-03-29T05:38:30.886Z,1.30
2023-03-29T05:40:44.446Z,1.60
2023-03-29T05:43:17.059Z,1.30
2023-03-29T05:45:31.498Z,1.50
2023-03-29T05:47:45.802Z,1.50
2023-03-29T05:49:58.877Z,1.20
2023-03-29T05:52:12.790Z,1.60
2023-03-29T05:54:26.250Z,2.00
2023-03-29T05:56:40.410Z,1.80
2023-03-29T05:58:58.012Z,1.40
2023-03-29T06:01:19.173Z,1.20
2023-03-29T06:03:43.304Z,1.80
2023-03-29T06:06:03.450Z,1.50
2023-03-29T06:08:18.297Z,2.60
2023-03-29T06:10:43.925Z,2.10
2023-03-29T06:13:08.220Z,5.00
2023-03-29T06:15:24.314Z,2.40
2023-03-29T06:17:46.043Z,2.60
2023-03-29T06:19:59.383Z,2.80
2023-03-29T06:22:14.964Z,2.60
2023-03-29T06:24:30.757Z,2.30
2023-03-29T06:26:51.095Z,3.70
2023-03-29T06:29:05.462Z,2.20
2023-03-29T06:31:18.434Z,3.60
2023-03-29T06:33:33.375Z,3.40
2023-03-29T06:35:58.796Z,3.20
2023-03-29T06:38:14.761Z,5.10
2023-03-29T06:41:04.162Z,2.50
2023-03-29T06:43:33.979Z,2.90
2023-03-29T06:45:57.331Z,2.50
2023-03-29T06:48:21.285Z,2.70
2023-03-29T06:50:43.818Z,9.70
2023-03-29T06:53:00.772Z,4.30
2023-03-29T06:55:17.008Z,3.30
2023-03-29T06:57:31.896Z,4.40
2023-03-29T06:59:45.508Z,4.80
2023-03-29T07:02:09.940Z,6.20
2023-03-29T07:04:33.331Z,4.50
2023-03-29T07:09:22.006Z,4.70
2023-03-29T07:12:01.074Z,7.00
2023-03-29T07:14:14.705Z,4.90
2023-03-29T07:16:28.470Z,5.40
2023-03-29T07:18:56.843Z,8.10
2023-03-29T07:21:29.888Z,6.40
2023-03-29T07:23:43.796Z,9.00
2023-03-29T07:25:56.809Z,9.00
2023-03-29T07:28:12.390Z,7.90
2023-03-29T07:30:31.481Z,8.80
2023-03-29T07:33:00.130Z,8.30
2023-03-29T07:35:20.608Z,8.90
2023-03-29T07:37:54.104Z,10.70
2023-03-29T07:40:13.438Z,9.70
2023-03-29T07:42:48.959Z,9.40
2023-03-29T07:45:07.206Z,8.70
2023-03-29T07:47:27.097Z,8.50
2023-03-29T07:49:41.300Z,8.90
2023-03-29T07:51:55.093Z,9.80
2023-03-29T07:54:09.366Z,8.30
2023-03-29T07:56:25.898Z,11.00
2023-03-29T07:58:58.467Z,10.10
2023-03-29T08:01:18.738Z,9.60
2023-03-29T08:03:52.044Z,9.50
2023-03-29T08:06:08.172Z,10.10
2023-03-29T08:08:21.806Z,11.40
2023-03-29T08:10:40.501Z,9.80
2023-03-29T08:12:59.245Z,13.30
2023-03-29T08:15:22.493Z,10.00
2023-03-29T08:17:35.952Z,11.60
2023-03-29T08:19:51.065Z,10.60
2023-03-29T08:22:09.673Z,11.90
2023-03-29T08:24:42.744Z,10.30
2023-03-29T08:26:56.802Z,10.80
2023-03-29T08:29:11.348Z,10.70
2023-03-29T08:31:24.654Z,9.30
2023-03-29T08:33:37.623Z,12.20
2023-03-29T08:36:13.258Z,11.40
2023-03-29T08:38:29.887Z,11.50
2023-03-29T08:40:43.787Z,12.30
2023-03-29T08:43:44.125Z,12.80
2023-03-29T08:46:35.292Z,12.40
2023-03-29T08:49:13.547Z,14.70
2023-03-29T08:51:33.085Z,12.60
2023-03-29T08:53:50.187Z,12.90
2023-03-29T08:56:13.851Z,13.50
2023-03-29T08:58:37.163Z,16.10
2023-03-29T09:00:54.849Z,12.80
2023-03-29T09:03:12.400Z,14.70
2023-03-29T09:05:31.143Z,13.30
2023-03-29T09:07:59.110Z,14.50
2023-03-29T09:10:19.868Z,15.80
2023-03-29T09:12:46.858Z,11.70
2023-03-29T09:15:20.560Z,14.30
2023-03-29T09:17:51.730Z,11.40
2023-03-29T09:20:17.014Z,15.70
2023-03-29T09:22:36.158Z,13.80
2023-03-29T09:25:00.712Z,16.40
2023-03-29T09:27:18.188Z,11.50
2023-03-29T09:29:53.471Z,12.40
2023-03-29T09:32:18.012Z,13.90
2023-03-29T09:34:37.982Z,14.60
2023-03-29T09:36:57.777Z,11.70
2023-03-29T09:39:13.022Z,15.50
2023-03-29T09:41:33.635Z,11.60
2023-03-29T09:43:49.543Z,13.90
2023-03-29T09:46:10.410Z,12.90
2023-03-29T09:48:25.102Z,15.30
2023-03-29T09:50:43.928Z,16.00
2023-03-29T09:52:58.354Z,13.70
2023-03-29T09:55:19.456Z,13.10
2023-03-29T09:57:48.476Z,14.40
2023-03-29T10:00:06.811Z,14.30
2023-03-29T10:02:27.478Z,16.00
2023-03-29T10:04:43.630Z,14.90
2023-03-29T10:06:58.439Z,17.00
2023-03-29T10:09:23.928Z,16.70
2023-03-29T10:11:42.703Z,17.80
2023-03-29T10:14:00.447Z,16.90
2023-03-29T10:16:22.167Z,16.70
2023-03-29T10:18:36.845Z,16.80
2023-03-29T10:20:50.297Z,14.10
2023-03-29T10:23:04.703Z,14.20
2023-03-29T10:25:21.989Z,13.60
2023-03-29T10:27:37.730Z,12.20
2023-03-29T10:29:51.332Z,15.50
2023-03-29T10:32:05.025Z,16.70
2023-03-29T10:34:22.077Z,12.80
2023-03-29T10:36:37.179Z,14.80
2023-03-29T10:38:50.098Z,14.80
2023-03-29T10:41:12.563Z,16.10
2023-03-29T10:43:30.712Z,12.50
2023-03-29T10:45:46.301Z,15.50
2023-03-29T10:48:01.368Z,14.20
2023-03-29T10:50:21.016Z,18.40
2023-03-29T10:52:36.239Z,14.30
2023-03-29T10:54:51.544Z,16.70
2023-03-29T10:57:09.260Z,17.20
2023-03-29T10:59:42.584Z,16.60
2023-03-29T11:02:34.114Z,14.90
2023-03-29T11:04:53.611Z,17.80
2023-03-29T11:07:33.701Z,14.00
2023-03-29T11:09:56.638Z,14.50
2023-03-29T11:12:25.383Z,11.80
2023-03-29T11:14:47.834Z,15.10
2023-03-29T11:17:13.733Z,15.50
2023-03-29T11:19:50.942Z,17.00
2023-03-29T11:22:11.924Z,14.80
2023-03-29T11:24:51.138Z,18.10
2023-03-29T11:27:16.156Z,17.70
2023-03-29T11:29:34.946Z,16.60
2023-03-29T11:31:59.158Z,18.50
2023-03-29T11:34:24.208Z,18.30
2023-03-29T11:36:43.586Z,25.80
2023-03-29T11:39:05.910Z,25.50
2023-03-29T11:41:22.016Z,20.70
2023-03-29T11:43:40.684Z,23.60
2023-03-29T11:45:58.269Z,20.20
2023-03-29T11:48:17.647Z,17.60
2023-03-29T11:50:35.329Z,20.10
2023-03-29T11:52:53.697Z,19.20
2023-03-29T11:55:12.940Z,17.50
2023-03-29T11:57:33.179Z,17.00
2023-03-29T11:59:51.854Z,15.60
2023-03-29T12:02:16.138Z,19.70
2023-03-29T12:04:34.534Z,19.10
2023-03-29T12:06:55.868Z,19.80
2023-03-29T12:09:16.625Z,18.80
2023-03-29T12:11:37.341Z,21.60
2023-03-29T12:13:56.946Z,23.00
2023-03-29T12:16:19.385Z,21.50
2023-03-29T12:20:50.040Z,17.80
2023-03-29T12:23:03.893Z,13.60
2023-03-29T12:25:24.614Z,16.30
2023-03-29T12:27:44.839Z,15.50
2023-03-29T12:30:34.440Z,17.90
2023-03-29T12:33:10.150Z,15.40
2023-03-29T12:35:55.513Z,17.00
2023-03-29T12:38:30.966Z,17.40
2023-03-29T12:41:05.098Z,17.40
2023-03-29T12:43:54.179Z,14.80
2023-03-29T12:46:12.440Z,18.20
2023-03-29T12:48:29.148Z,15.20
2023-03-29T12:50:47.373Z,16.00
2023-03-29T12:53:08.570Z,17.80
2023-03-29T12:55:37.772Z,19.70
2023-03-29T12:58:05.036Z,16.20
2023-03-29T13:00:32.914Z,18.70
2023-03-29T13:02:46.821Z,19.20
2023-03-29T13:05:02.223Z,17.90
2023-03-29T13:07:32.026Z,22.50
2023-03-29T13:09:54.634Z,17.50
2023-03-29T13:12:24.836Z,18.60
2023-03-29T13:14:43.934Z,18.20
2023-03-29T13:17:17.544Z,19.30
2023-03-29T13:19:39.290Z,20.20
2023-03-29T13:22:05.997Z,22.70
2023-03-29T13:24:36.826Z,27.50
2023-03-29T13:27:01.060Z,17.70
2023-03-29T13:29:44.333Z,28.30
2023-03-29T13:32:05.098Z,18.00
2023-03-29T13:34:33.944Z,26.50
2023-03-29T13:36:57.799Z,17.50
2023-03-29T13:39:18.511Z,20.80
2023-03-29T13:41:47.452Z,20.30
2023-03-29T13:44:02.749Z,14.20
2023-03-29T13:46:39.385Z,18.30
2023-03-29T13:49:07.222Z,21.80
2023-03-29T13:51:35.813Z,19.30
2023-03-29T13:53:56.273Z,22.90
2023-03-29T13:56:13.508Z,31.80
2023-03-29T13:58:37.909Z,20.20
2023-03-29T14:00:58.327Z,42.10
2023-03-29T14:03:16.871Z,16.10
2023-03-29T14:05:35.624Z,20.70
2023-03-29T14:07:53.788Z,43.80
2023-03-29T14:10:09.128Z,37.10
2023-03-29T14:12:23.753Z,60.90
2023-03-29T14:14:48.299Z,21.80
2023-03-29T14:17:10.989Z,20.00
2023-03-29T14:19:28.587Z,32.00
2023-03-29T14:21:43.392Z,57.90
2023-03-29T14:24:03.929Z,72.40
2023-03-29T14:26:22.327Z,29.80
2023-03-29T14:28:36.885Z,53.70
2023-03-29T14:30:53.687Z,71.90
2023-03-29T14:33:08.164Z,84.90
2023-03-29T14:35:24.288Z,118.90
2023-03-29T14:37:38.430Z,111.70
2023-03-29T14:39:52.722Z,73.80
2023-03-29T14:42:06.939Z,55.30
2023-03-29T14:44:22.200Z,60.50
2023-03-29T14:46:38.449Z,117.30
2023-03-29T14:48:52.424Z,100.70
2023-03-29T14:51:05.368Z,47.50
2023-03-29T14:53:23.562Z,55.90
2023-03-29T14:55:38.506Z,65.50
2023-03-29T14:57:53.860Z,57.50
2023-03-29T15:00:20.215Z,84.80
2023-03-29T15:02:34.813Z,40.00
2023-03-29T15:04:48.455Z,99.20
2023-03-29T15:07:07.276Z,68.00
2023-03-29T15:09:25.531Z,46.90
2023-03-29T15:11:40.872Z,57.30
2023-03-29T15:14:02.660Z,51.10
2023-03-29T15:16:19.803Z,78.30
2023-03-29T15:18:36.006Z,54.80
2023-03-29T15:20:49.402Z,44.20
2023-03-29T15:23:05.708Z,39.90
2023-03-29T15:25:22.975Z,57.30
2023-03-29T15:27:46.016Z,36.00
2023-03-29T15:30:05.763Z,44.30
2023-03-29T15:32:26.924Z,39.30
2023-03-29T15:34:40.972Z,51.60
2023-03-29T15:36:55.090Z,33.60
2023-03-29T15:39:08.391Z,34.70
2023-03-29T15:41:22.784Z,40.30
2023-03-29T15:43:35.968Z,43.40
2023-03-29T15:45:48.890Z,26.50
2023-03-29T15:48:05.887Z,24.50
2023-03-29T15:50:19.626Z,31.00
2023-03-29T15:52:32.754Z,25.10
2023-03-29T15:54:46.990Z,26.50
2023-03-29T15:57:04.623Z,26.30
2023-03-29T15:59:20.393Z,20.10
2023-03-29T16:01:40.085Z,21.70
2023-03-29T16:03:53.704Z,19.60
2023-03-29T16:06:06.885Z,19.10
2023-03-29T16:08:20.493Z,28.60
2023-03-29T16:10:34.423Z,20.60
2023-03-29T16:12:48.368Z,18.80
2023-03-29T16:15:01.654Z,21.20
2023-03-29T16:17:16.962Z,20.70
2023-03-29T16:19:30.292Z,21.90
2023-03-29T16:21:44.148Z,20.50
2023-03-29T16:23:56.880Z,24.90
2023-03-29T16:26:10.535Z,23.60
2023-03-29T16:28:23.187Z,21.90
2023-03-29T16:30:36.081Z,20.50
2023-03-29T16:32:48.860Z,18.00
2023-03-29T16:35:02.350Z,11.70
2023-03-29T16:37:15.593Z,24.50
2023-03-29T16:39:28.774Z,25.40
2023-03-29T16:41:43.260Z,21.50
2023-03-29T16:43:57.461Z,21.30
2023-03-29T16:46:12.171Z,26.40
2023-03-29T16:48:26.061Z,22.40
2023-03-29T16:50:39.055Z,20.80
2023-03-29T16:52:53.533Z,26.10
2023-03-29T16:55:07.051Z,26.40
2023-03-29T16:57:20.185Z,25.80
2023-03-29T16:59:33.244Z,22.60
2023-03-29T17:01:46.540Z,21.70
2023-03-29T17:04:01.249Z,27.10
2023-03-29T17:06:16.052Z,29.20
2023-03-29T17:08:29.468Z,31.30
2023-03-29T17:10:45.831Z,20.20
2023-03-29T17:13:00.453Z,22.40
2023-03-29T17:15:15.081Z,19.20
2023-03-29T17:17:28.005Z,17.50
2023-03-29T17:19:41.105Z,20.60
2023-03-29T17:21:53.959Z,18.40
2023-03-29T17:24:06.959Z,16.90
2023-03-29T17:26:19.315Z,16.10
2023-03-29T17:28:36.011Z,12.80
2023-03-29T17:30:51.220Z,13.80
2023-03-29T17:33:05.543Z,17.70
2023-03-29T17:35:19.716Z,16.80
2023-03-29T17:37:32.898Z,11.00
2023-03-29T17:39:47.201Z,14.00
2023-03-29T17:42:00.814Z,13.70
2023-03-29T17:44:15.062Z,17.90
2023-03-29T17:46:28.460Z,16.40
2023-03-29T17:48:42.366Z,14.80
2023-03-29T17:50:57.851Z,11.90
2023-03-29T17:53:11.993Z,20.20
2023-03-29T17:55:25.183Z,18.90
2023-03-29T17:57:38.327Z,18.80
2023-03-29T17:59:50.962Z,16.70
2023-03-29T18:02:06.532Z,18.80
2023-03-29T18:04:19.331Z,18.10
2023-03-29T18:06:33.500Z,19.40
2023-03-29T18:08:47.536Z,23.00
2023-03-29T18:11:08.455Z,23.00
2023-03-29T18:13:26.465Z,22.30
2023-03-29T18:15:40.592Z,23.40
2023-03-29T18:17:55.456Z,22.90
2023-03-29T18:20:12.707Z,21.10
2023-03-29T18:22:25.900Z,18.80
2023-03-29T18:24:39.288Z,20.50
2023-03-29T18:26:52.251Z,21.20
2023-03-29T18:29:06.070Z,18.50
2023-03-29T18:31:20.807Z,15.80
2023-03-29T18:33:36.630Z,16.00
2023-03-29T18:35:51.613Z,16.70
2023-03-29T18:38:04.522Z,17.20
2023-03-29T18:40:21.341Z,15.30
2023-03-29T18:42:34.244Z,18.30
2023-03-29T18:44:47.327Z,16.10
2023-03-29T18:47:00.262Z,17.40
2023-03-29T18:49:14.205Z,16.30
2023-03-29T18:51:27.277Z,14.00
2023-03-29T18:53:43.069Z,14.80
2023-03-29T18:55:55.694Z,11.50
2023-03-29T18:58:08.379Z,12.30
2023-03-29T19:00:21.747Z,14.90
2023-03-29T19:02:34.831Z,11.70
2023-03-29T19:04:47.787Z,10.40
2023-03-29T19:07:00.886Z,8.90
2023-03-29T19:09:13.809Z,10.20
2023-03-29T19:11:28.772Z,7.90
2023-03-29T19:13:42.038Z,7.60
2023-03-29T19:15:54.819Z,7.90
2023-03-29T19:18:07.961Z,9.80
2023-03-29T19:20:22.239Z,7.10
2023-03-29T19:22:36.097Z,7.30
2023-03-29T19:24:48.811Z,7.70
2023-03-29T19:27:01.499Z,7.60
2023-03-29T19:29:14.352Z,6.90
2023-03-29T19:31:28.645Z,5.70
2023-03-29T19:33:41.838Z,7.50
2023-03-29T19:35:55.590Z,6.00
2023-03-29T19:38:10.235Z,7.00
2023-03-29T19:40:24.406Z,6.10
2023-03-29T19:42:40.580Z,6.20
2023-03-29T19:44:53.486Z,9.90
2023-03-29T19:47:08.190Z,5.30
2023-03-29T19:49:22.734Z,6.00
2023-03-29T19:51:37.397Z,6.10
2023-03-29T19:53:51.317Z,5.50
2023-03-29T19:56:07.502Z,5.70
2023-03-29T19:58:20.800Z,6.60
2023-03-29T20:00:34.900Z,5.60
2023-03-29T20:02:48.061Z,6.30
2023-03-29T20:05:00.837Z,5.40
2023-03-29T20:07:14.175Z,5.80
2023-03-29T20:09:27.294Z,5.20
2023-03-29T20:11:41.068Z,5.50
2023-03-29T20:13:54.934Z,5.90
2023-03-29T20:16:09.574Z,5.60
2023-03-29T20:18:22.761Z,6.80
2023-03-29T20:20:36.877Z,5.60
2023-03-29T20:22:49.683Z,5.20
2023-03-29T20:25:02.568Z,7.40
2023-03-29T20:27:15.079Z,5.20
2023-03-29T20:29:28.355Z,5.70
2023-03-29T20:31:41.426Z,4.80
2023-03-29T20:33:56.993Z,5.10
2023-03-29T20:36:11.487Z,4.30
2023-03-29T20:38:24.261Z,4.70
2023-03-29T20:40:38.401Z,5.10
2023-03-29T20:42:51.155Z,4.40
2023-03-29T20:45:04.361Z,3.50
2023-03-29T20:47:17.908Z,5.50
2023-03-29T20:49:30.525Z,4.70
2023-03-29T20:51:44.685Z,4.00
2023-03-29T20:54:03.413Z,3.40
2023-03-29T20:56:17.452Z,4.60
2023-03-29T20:58:30.318Z,3.50
2023-03-29T21:00:43.125Z,3.10
2023-03-29T21:02:56.355Z,3.40
2023-03-29T21:05:09.991Z,2.80
2023-03-29T21:07:24.145Z,3.70
2023-03-29T21:09:38.911Z,2.60
2023-03-29T21:11:52.821Z,2.40
2023-03-29T21:14:10.385Z,3.10
2023-03-29T21:16:23.499Z,3.70
2023-03-29T21:18:36.158Z,3.00
2023-03-29T21:20:50.728Z,3.10
2023-03-29T21:23:03.961Z,2.80
2023-03-29T21:25:18.600Z,2.50
2023-03-29T21:27:31.804Z,4.40
2023-03-29T21:29:45.159Z,2.70
2023-03-29T21:31:58.069Z,2.50
2023-03-29T21:34:11.048Z,4.00
2023-03-29T21:36:23.582Z,3.50
2023-03-29T21:38:36.801Z,4.70
2023-03-29T21:40:49.741Z,5.00
2023-03-29T21:43:02.668Z,3.70
2023-03-29T21:45:17.057Z,2.30
2023-03-29T21:47:31.476Z,2.70
2023-03-29T21:49:45.070Z,3.30
2023-03-29T21:51:57.758Z,2.50
2023-03-29T21:54:11.260Z,2.00
2023-03-29T21:56:24.214Z,2.50
2023-03-29T21:58:37.055Z,1.90
2023-03-29T22:00:51.774Z,3.10
2023-03-29T22:03:05.008Z,2.60
2023-03-29T22:05:19.293Z,1.70
2023-03-29T22:07:32.060Z,1.60
2023-03-29T22:09:45.506Z,2.40
2023-03-29T22:12:00.689Z,1.50
2023-03-29T22:14:15.348Z,2.80
2023-03-29T22:16:32.310Z,2.90
2023-03-29T22:18:47.989Z,2.20
2023-03-29T22:21:01.448Z,2.70
2023-03-29T22:23:14.433Z,2.60
2023-03-29T22:25:28.479Z,1.70
2023-03-29T22:27:41.436Z,2.60
2023-03-29T22:29:55.373Z,2.00
2023-03-29T22:32:09.524Z,3.10
2023-03-29T22:34:22.309Z,3.50
2023-03-29T22:36:35.965Z,3.20
2023-03-29T22:38:50.099Z,4.00
2023-03-29T22:41:04.561Z,2.20
2023-03-29T22:43:19.040Z,1.90
2023-03-29T22:45:33.736Z,3.10
2023-03-29T22:47:47.941Z,2.20
2023-03-29T22:50:01.320Z,2.00
2023-03-29T22:52:15.428Z,1.20
2023-03-29T22:54:28.000Z,2.00
2023-03-29T22:56:42.586Z,1.40
2023-03-29T22:58:57.292Z,1.50
2023-03-29T23:01:11.144Z,2.10
2023-03-29T23:03:24.444Z,1.40
2023-03-29T23:05:38.037Z,1.30
2023-03-29T23:07:50.703Z,2.10
2023-03-29T23:10:04.703Z,1.40
2023-03-29T23:12:19.389Z,1.30
2023-03-29T23:14:34.908Z,2.90
2023-03-29T23:16:48.887Z,0.70
2023-03-29T23:19:02.138Z,1.00
2023-03-29T23:21:15.867Z,1.70
2023-03-29T23:23:29.654Z,0.60
2023-03-29T23:25:44.795Z,0.60
2023-03-29T23:27:58.507Z,2.10
2023-03-29T23:30:14.418Z,1.10
2023-03-29T23:32:29.002Z,0.90
2023-03-29T23:34:41.778Z,1.50
2023-03-29T23:36:55.862Z,1.00
2023-03-29T23:39:09.092Z,0.60
2023-03-29T23:41:24.093Z,0.90
2023-03-29T23:43:41.715Z,0.70
2023-03-29T23:46:02.180Z,1.30
2023-03-29T23:48:17.580Z,1.00
2023-03-29T23:50:31.470Z,0.70
2023-03-29T23:52:45.197Z,1.40
2023-03-29T23:54:59.356Z,0.70
2023-03-29T23:57:13.504Z,1.20
2023-03-29T23:59:30.023Z,0.90
